sensor_id;sensor_type;location;lat;lon;timestamp;P1;durP1;ratioP1;P2;durP2;ratioP2
41927;SDS011;27616;51.420;6.788;2024-03-22T00:01:57;37.00;;;17.07;;
41927;SDS011;27616;51.420;6.788;2024-03-22T00:04:22;33.30;;;14.87;;
41927;SDS011;27616;51.420;6.788;2024-03-22T00:06:48;34.77;;;16.60;;
41927;SDS011;27616;51.420;6.788;2024-03-22T00:09:15;31.60;;;16.23;;
41927;SDS011;27616;51.420;6.788;2024-03-22T00:11:41;33.17;;;16.30;;
41927;SDS011;27616;51.420;6.788;2024-03-22T00:14:08;29.83;;;15.87;;
41927;SDS011;27616;51.420;6.788;2024-03-22T00:16:34;37.43;;;16.87;;
41927;SDS011;27616;51.420;6.788;2024-03-22T00:19:00;32.40;;;15.13;;
41927;SDS011;27616;51.420;6.788;2024-03-22T00:21:25;34.03;;;16.67;;
41927;SDS011;27616;51.420;6.788;2024-03-22T00:23:51;32.67;;;15.73;;
41927;SDS011;27616;51.420;6.788;2024-03-22T00:26:17;36.97;;;16.70;;
41927;SDS011;27616;51.420;6.788;2024-03-22T00:28:42;34.73;;;14.67;;
41927;SDS011;27616;51.420;6.788;2024-03-22T00:31:08;34.17;;;16.07;;
41927;SDS011;27616;51.420;6.788;2024-03-22T00:33:34;33.43;;;15.83;;
41927;SDS011;27616;51.420;6.788;2024-03-22T00:36:00;36.40;;;16.60;;
41927;SDS011;27616;51.420;6.788;2024-03-22T00:38:26;34.30;;;15.97;;
41927;SDS011;27616;51.420;6.788;2024-03-22T00:40:52;36.00;;;16.30;;
41927;SDS011;27616;51.420;6.788;2024-03-22T00:43:17;33.90;;;15.60;;
41927;SDS011;27616;51.420;6.788;2024-03-22T00:45:44;33.73;;;15.77;;
41927;SDS011;27616;51.420;6.788;2024-03-22T00:48:10;33.20;;;15.63;;
41927;SDS011;27616;51.420;6.788;2024-03-22T00:50:35;36.60;;;15.83;;
41927;SDS011;27616;51.420;6.788;2024-03-22T00:53:01;38.93;;;15.37;;
41927;SDS011;27616;51.420;6.788;2024-03-22T00:55:28;34.33;;;15.90;;
41927;SDS011;27616;51.420;6.788;2024-03-22T00:57:54;33.97;;;15.57;;
41927;SDS011;27616;51.420;6.788;2024-03-22T01:00:19;32.27;;;15.47;;
41927;SDS011;27616;51.420;6.788;2024-03-22T01:02:45;33.53;;;15.13;;
41927;SDS011;27616;51.420;6.788;2024-03-22T01:05:11;36.67;;;15.40;;
41927;SDS011;27616;51.420;6.788;2024-03-22T01:07:37;38.33;;;15.73;;
41927;SDS011;27616;51.420;6.788;2024-03-22T01:10:03;36.83;;;15.70;;
41927;SDS011;27616;51.420;6.788;2024-03-22T01:12:29;37.83;;;16.20;;
41927;SDS011;27616;51.420;6.788;2024-03-22T01:14:56;34.87;;;15.53;;
41927;SDS011;27616;51.420;6.788;2024-03-22T01:17:22;35.87;;;14.77;;
41927;SDS011;27616;51.420;6.788;2024-03-22T01:19:47;35.13;;;15.00;;
41927;SDS011;27616;51.420;6.788;2024-03-22T01:22:13;31.43;;;14.07;;
41927;SDS011;27616;51.420;6.788;2024-03-22T01:24:39;31.40;;;14.37;;
41927;SDS011;27616;51.420;6.788;2024-03-22T01:27:04;37.00;;;15.63;;
41927;SDS011;27616;51.420;6.788;2024-03-22T01:29:30;34.13;;;15.07;;
41927;SDS011;27616;51.420;6.788;2024-03-22T01:31:57;35.30;;;14.70;;
41927;SDS011;27616;51.420;6.788;2024-03-22T01:34:23;37.20;;;16.30;;
41927;SDS011;27616;51.420;6.788;2024-03-22T01:36:49;37.33;;;16.50;;
41927;SDS011;27616;51.420;6.788;2024-03-22T01:39:16;36.20;;;15.37;;
41927;SDS011;27616;51.420;6.788;2024-03-22T01:41:43;42.83;;;16.60;;
41927;SDS011;27616;51.420;6.788;2024-03-22T01:44:09;34.80;;;15.30;;
41927;SDS011;27616;51.420;6.788;2024-03-22T01:46:34;32.70;;;14.93;;
41927;SDS011;27616;51.420;6.788;2024-03-22T01:49:00;38.27;;;16.37;;
41927;SDS011;27616;51.420;6.788;2024-03-22T01:51:26;38.13;;;17.37;;
41927;SDS011;27616;51.420;6.788;2024-03-22T01:53:52;35.47;;;15.80;;
41927;SDS011;27616;51.420;6.788;2024-03-22T01:56:19;41.70;;;17.70;;
41927;SDS011;27616;51.420;6.788;2024-03-22T01:58:45;39.43;;;15.43;;
41927;SDS011;27616;51.420;6.788;2024-03-22T02:01:11;37.50;;;16.40;;
41927;SDS011;27616;51.420;6.788;2024-03-22T02:03:37;39.60;;;16.13;;
41927;SDS011;27616;51.420;6.788;2024-03-22T02:06:03;36.93;;;15.63;;
41927;SDS011;27616;51.420;6.788;2024-03-22T02:08:28;38.93;;;16.67;;
41927;SDS011;27616;51.420;6.788;2024-03-22T02:10:54;37.47;;;16.53;;
41927;SDS011;27616;51.420;6.788;2024-03-22T02:13:20;37.93;;;16.87;;
41927;SDS011;27616;51.420;6.788;2024-03-22T02:15:45;35.70;;;15.30;;
41927;SDS011;27616;51.420;6.788;2024-03-22T02:18:11;36.10;;;15.23;;
41927;SDS011;27616;51.420;6.788;2024-03-22T02:20:37;37.50;;;16.77;;
41927;SDS011;27616;51.420;6.788;2024-03-22T02:23:02;39.23;;;15.97;;
41927;SDS011;27616;51.420;6.788;2024-03-22T02:25:28;36.50;;;14.83;;
41927;SDS011;27616;51.420;6.788;2024-03-22T02:27:54;38.07;;;15.80;;
41927;SDS011;27616;51.420;6.788;2024-03-22T02:30:19;38.77;;;16.17;;
41927;SDS011;27616;51.420;6.788;2024-03-22T02:32:45;36.20;;;15.57;;
41927;SDS011;27616;51.420;6.788;2024-03-22T02:35:10;37.37;;;16.60;;
41927;SDS011;27616;51.420;6.788;2024-03-22T02:37:36;35.07;;;15.03;;
41927;SDS011;27616;51.420;6.788;2024-03-22T02:40:01;37.10;;;15.40;;
41927;SDS011;27616;51.420;6.788;2024-03-22T02:42:27;36.97;;;15.20;;
41927;SDS011;27616;51.420;6.788;2024-03-22T02:44:53;39.37;;;15.83;;
41927;SDS011;27616;51.420;6.788;2024-03-22T02:47:18;37.67;;;15.93;;
41927;SDS011;27616;51.420;6.788;2024-03-22T02:49:44;40.43;;;17.23;;
41927;SDS011;27616;51.420;6.788;2024-03-22T02:52:10;35.23;;;14.73;;
41927;SDS011;27616;51.420;6.788;2024-03-22T02:54:35;37.67;;;15.03;;
41927;SDS011;27616;51.420;6.788;2024-03-22T02:57:01;36.13;;;15.47;;
41927;SDS011;27616;51.420;6.788;2024-03-22T02:59:27;40.50;;;15.27;;
41927;SDS011;27616;51.420;6.788;2024-03-22T03:01:53;36.83;;;15.73;;
41927;SDS011;27616;51.420;6.788;2024-03-22T03:04:19;35.80;;;14.83;;
41927;SDS011;27616;51.420;6.788;2024-03-22T03:06:45;35.53;;;15.27;;
41927;SDS011;27616;51.420;6.788;2024-03-22T03:09:10;34.43;;;14.77;;
41927;SDS011;27616;51.420;6.788;2024-03-22T03:11:39;34.43;;;14.73;;
41927;SDS011;27616;51.420;6.788;2024-03-22T03:14:05;41.00;;;15.73;;
41927;SDS011;27616;51.420;6.788;2024-03-22T03:16:30;40.67;;;15.80;;
41927;SDS011;27616;51.420;6.788;2024-03-22T03:18:56;34.43;;;15.17;;
41927;SDS011;27616;51.420;6.788;2024-03-22T03:21:22;37.10;;;15.53;;
41927;SDS011;27616;51.420;6.788;2024-03-22T03:23:47;37.30;;;15.87;;
41927;SDS011;27616;51.420;6.788;2024-03-22T03:26:13;38.60;;;16.40;;
41927;SDS011;27616;51.420;6.788;2024-03-22T03:28:38;35.23;;;14.47;;
41927;SDS011;27616;51.420;6.788;2024-03-22T03:31:04;38.37;;;15.03;;
41927;SDS011;27616;51.420;6.788;2024-03-22T03:33:30;33.73;;;14.90;;
41927;SDS011;27616;51.420;6.788;2024-03-22T03:35:55;34.07;;;15.07;;
41927;SDS011;27616;51.420;6.788;2024-03-22T03:38:21;31.97;;;15.03;;
41927;SDS011;27616;51.420;6.788;2024-03-22T03:40:47;36.47;;;14.20;;
41927;SDS011;27616;51.420;6.788;2024-03-22T03:43:13;36.73;;;15.27;;
41927;SDS011;27616;51.420;6.788;2024-03-22T03:45:39;31.53;;;15.23;;
41927;SDS011;27616;51.420;6.788;2024-03-22T03:48:04;39.43;;;16.87;;
41927;SDS011;27616;51.420;6.788;2024-03-22T03:50:30;36.13;;;15.37;;
41927;SDS011;27616;51.420;6.788;2024-03-22T03:52:56;40.43;;;16.23;;
41927;SDS011;27616;51.420;6.788;2024-03-22T03:55:22;33.90;;;13.97;;
41927;SDS011;27616;51.420;6.788;2024-03-22T03:57:50;36.20;;;14.30;;
41927;SDS011;27616;51.420;6.788;2024-03-22T04:00:16;35.00;;;14.73;;
41927;SDS011;27616;51.420;6.788;2024-03-22T04:02:41;33.50;;;14.80;;
41927;SDS011;27616;51.420;6.788;2024-03-22T04:05:07;35.70;;;14.90;;
41927;SDS011;27616;51.420;6.788;2024-03-22T04:07:33;31.03;;;14.90;;
41927;SDS011;27616;51.420;6.788;2024-03-22T04:09:58;34.57;;;15.10;;
41927;SDS011;27616;51.420;6.788;2024-03-22T04:12:25;32.87;;;14.00;;
41927;SDS011;27616;51.420;6.788;2024-03-22T04:14:51;34.13;;;14.63;;
41927;SDS011;27616;51.420;6.788;2024-03-22T04:17:17;31.73;;;14.47;;
41927;SDS011;27616;51.420;6.788;2024-03-22T04:19:43;30.20;;;14.33;;
41927;SDS011;27616;51.420;6.788;2024-03-22T04:22:09;32.10;;;15.37;;
41927;SDS011;27616;51.420;6.788;2024-03-22T04:24:34;34.77;;;15.60;;
41927;SDS011;27616;51.420;6.788;2024-03-22T04:27:00;34.10;;;14.67;;
41927;SDS011;27616;51.420;6.788;2024-03-22T04:29:25;32.50;;;15.27;;
41927;SDS011;27616;51.420;6.788;2024-03-22T04:31:51;32.53;;;14.10;;
41927;SDS011;27616;51.420;6.788;2024-03-22T04:34:16;34.20;;;13.93;;
41927;SDS011;27616;51.420;6.788;2024-03-22T04:36:42;35.47;;;15.53;;
41927;SDS011;27616;51.420;6.788;2024-03-22T04:39:08;31.63;;;14.87;;
41927;SDS011;27616;51.420;6.788;2024-03-22T04:41:35;35.37;;;14.17;;
41927;SDS011;27616;51.420;6.788;2024-03-22T04:44:00;35.77;;;14.87;;
41927;SDS011;27616;51.420;6.788;2024-03-22T04:46:26;35.33;;;15.20;;
41927;SDS011;27616;51.420;6.788;2024-03-22T04:48:52;33.57;;;14.93;;
41927;SDS011;27616;51.420;6.788;2024-03-22T04:51:17;31.43;;;14.77;;
41927;SDS011;27616;51.420;6.788;2024-03-22T04:53:43;33.20;;;14.90;;
41927;SDS011;27616;51.420;6.788;2024-03-22T04:56:09;28.03;;;13.33;;
41927;SDS011;27616;51.420;6.788;2024-03-22T04:58:35;29.33;;;14.23;;
41927;SDS011;27616;51.420;6.788;2024-03-22T05:01:00;30.10;;;14.07;;
41927;SDS011;27616;51.420;6.788;2024-03-22T05:03:26;29.77;;;14.03;;
41927;SDS011;27616;51.420;6.788;2024-03-22T05:05:52;31.70;;;14.63;;
41927;SDS011;27616;51.420;6.788;2024-03-22T05:08:17;28.90;;;14.10;;
41927;SDS011;27616;51.420;6.788;2024-03-22T05:10:43;35.73;;;14.80;;
41927;SDS011;27616;51.420;6.788;2024-03-22T05:13:09;29.40;;;14.03;;
41927;SDS011;27616;51.420;6.788;2024-03-22T05:15:34;30.30;;;14.57;;
41927;SDS011;27616;51.420;6.788;2024-03-22T05:18:00;33.97;;;13.87;;
41927;SDS011;27616;51.420;6.788;2024-03-22T05:20:26;35.13;;;14.77;;
41927;SDS011;27616;51.420;6.788;2024-03-22T05:22:51;31.60;;;14.27;;
41927;SDS011;27616;51.420;6.788;2024-03-22T05:25:17;34.80;;;14.50;;
41927;SDS011;27616;51.420;6.788;2024-03-22T05:27:43;28.50;;;14.27;;
41927;SDS011;27616;51.420;6.788;2024-03-22T05:30:10;34.40;;;15.33;;
41927;SDS011;27616;51.420;6.788;2024-03-22T05:32:36;30.50;;;14.13;;
41927;SDS011;27616;51.420;6.788;2024-03-22T05:35:02;34.40;;;14.00;;
41927;SDS011;27616;51.420;6.788;2024-03-22T05:37:28;30.90;;;15.17;;
41927;SDS011;27616;51.420;6.788;2024-03-22T05:39:54;30.70;;;14.70;;
41927;SDS011;27616;51.420;6.788;2024-03-22T05:42:20;30.00;;;13.93;;
41927;SDS011;27616;51.420;6.788;2024-03-22T05:44:45;28.23;;;14.57;;
41927;SDS011;27616;51.420;6.788;2024-03-22T05:47:11;34.10;;;15.27;;
41927;SDS011;27616;51.420;6.788;2024-03-22T05:49:36;34.17;;;14.60;;
41927;SDS011;27616;51.420;6.788;2024-03-22T05:52:02;31.00;;;14.80;;
41927;SDS011;27616;51.420;6.788;2024-03-22T05:54:28;29.60;;;14.67;;
41927;SDS011;27616;51.420;6.788;2024-03-22T05:56:53;32.70;;;14.80;;
41927;SDS011;27616;51.420;6.788;2024-03-22T05:59:20;27.57;;;13.97;;
41927;SDS011;27616;51.420;6.788;2024-03-22T06:01:45;33.83;;;15.47;;
41927;SDS011;27616;51.420;6.788;2024-03-22T06:04:11;30.30;;;14.70;;
41927;SDS011;27616;51.420;6.788;2024-03-22T06:06:36;32.17;;;15.13;;
41927;SDS011;27616;51.420;6.788;2024-03-22T06:09:03;29.87;;;14.33;;
41927;SDS011;27616;51.420;6.788;2024-03-22T06:11:32;30.63;;;15.37;;
41927;SDS011;27616;51.420;6.788;2024-03-22T06:13:57;29.08;;;14.50;;
41927;SDS011;27616;51.420;6.788;2024-03-22T06:16:23;32.40;;;14.83;;
41927;SDS011;27616;51.420;6.788;2024-03-22T06:18:49;27.50;;;14.57;;
41927;SDS011;27616;51.420;6.788;2024-03-22T06:21:14;26.73;;;14.60;;
41927;SDS011;27616;51.420;6.788;2024-03-22T06:23:40;27.90;;;13.97;;
41927;SDS011;27616;51.420;6.788;2024-03-22T06:26:06;26.37;;;13.33;;
41927;SDS011;27616;51.420;6.788;2024-03-22T06:28:32;31.97;;;14.57;;
41927;SDS011;27616;51.420;6.788;2024-03-22T06:30:58;27.37;;;13.93;;
41927;SDS011;27616;51.420;6.788;2024-03-22T06:33:23;30.63;;;14.10;;
41927;SDS011;27616;51.420;6.788;2024-03-22T06:35:49;28.47;;;14.93;;
41927;SDS011;27616;51.420;6.788;2024-03-22T06:38:14;29.40;;;13.67;;
41927;SDS011;27616;51.420;6.788;2024-03-22T06:40:40;33.23;;;15.70;;
41927;SDS011;27616;51.420;6.788;2024-03-22T06:43:06;27.10;;;14.20;;
41927;SDS011;27616;51.420;6.788;2024-03-22T06:45:31;27.77;;;14.05;;
41927;SDS011;27616;51.420;6.788;2024-03-22T06:47:57;27.65;;;13.05;;
41927;SDS011;27616;51.420;6.788;2024-03-22T06:50:22;31.23;;;13.52;;
41927;SDS011;27616;51.420;6.788;2024-03-22T06:52:51;28.27;;;13.13;;
41927;SDS011;27616;51.420;6.788;2024-03-22T06:55:18;24.48;;;13.48;;
41927;SDS011;27616;51.420;6.788;2024-03-22T06:57:47;28.50;;;12.88;;
41927;SDS011;27616;51.420;6.788;2024-03-22T07:00:14;27.05;;;13.57;;
41927;SDS011;27616;51.420;6.788;2024-03-22T07:02:41;23.67;;;13.13;;
41927;SDS011;27616;51.420;6.788;2024-03-22T07:05:07;25.90;;;12.40;;
41927;SDS011;27616;51.420;6.788;2024-03-22T07:07:33;25.23;;;12.85;;
41927;SDS011;27616;51.420;6.788;2024-03-22T07:10:03;25.33;;;12.43;;
41927;SDS011;27616;51.420;6.788;2024-03-22T07:12:30;29.02;;;13.23;;
41927;SDS011;27616;51.420;6.788;2024-03-22T07:14:59;23.40;;;11.75;;
41927;SDS011;27616;51.420;6.788;2024-03-22T07:17:25;23.60;;;11.30;;
41927;SDS011;27616;51.420;6.788;2024-03-22T07:19:51;24.48;;;11.75;;
41927;SDS011;27616;51.420;6.788;2024-03-22T07:22:17;23.65;;;12.30;;
41927;SDS011;27616;51.420;6.788;2024-03-22T07:24:43;21.55;;;12.10;;
41927;SDS011;27616;51.420;6.788;2024-03-22T07:27:09;22.98;;;12.48;;
41927;SDS011;27616;51.420;6.788;2024-03-22T07:29:35;23.95;;;11.75;;
41927;SDS011;27616;51.420;6.788;2024-03-22T07:32:01;21.23;;;11.65;;
41927;SDS011;27616;51.420;6.788;2024-03-22T07:34:28;20.10;;;11.35;;
41927;SDS011;27616;51.420;6.788;2024-03-22T07:36:54;22.98;;;11.63;;
41927;SDS011;27616;51.420;6.788;2024-03-22T07:39:19;22.15;;;12.07;;
41927;SDS011;27616;51.420;6.788;2024-03-22T07:41:45;25.52;;;10.73;;
41927;SDS011;27616;51.420;6.788;2024-03-22T07:44:10;22.63;;;11.15;;
41927;SDS011;27616;51.420;6.788;2024-03-22T07:46:36;22.38;;;11.10;;
41927;SDS011;27616;51.420;6.788;2024-03-22T07:49:02;22.60;;;11.05;;
41927;SDS011;27616;51.420;6.788;2024-03-22T07:51:29;20.23;;;10.85;;
41927;SDS011;27616;51.420;6.788;2024-03-22T07:53:55;19.52;;;10.27;;
41927;SDS011;27616;51.420;6.788;2024-03-22T07:56:20;19.83;;;10.93;;
41927;SDS011;27616;51.420;6.788;2024-03-22T07:58:46;24.25;;;11.40;;
41927;SDS011;27616;51.420;6.788;2024-03-22T08:01:12;19.05;;;10.15;;
41927;SDS011;27616;51.420;6.788;2024-03-22T08:03:38;20.35;;;10.52;;
41927;SDS011;27616;51.420;6.788;2024-03-22T08:06:03;18.50;;;9.50;;
41927;SDS011;27616;51.420;6.788;2024-03-22T08:08:29;19.45;;;10.50;;
41927;SDS011;27616;51.420;6.788;2024-03-22T08:10:55;20.40;;;10.25;;
41927;SDS011;27616;51.420;6.788;2024-03-22T08:13:21;20.13;;;10.88;;
41927;SDS011;27616;51.420;6.788;2024-03-22T08:15:46;19.10;;;10.32;;
41927;SDS011;27616;51.420;6.788;2024-03-22T08:18:12;18.98;;;10.13;;
41927;SDS011;27616;51.420;6.788;2024-03-22T08:20:38;20.00;;;10.68;;
41927;SDS011;27616;51.420;6.788;2024-03-22T08:23:04;18.58;;;9.45;;
41927;SDS011;27616;51.420;6.788;2024-03-22T08:25:33;17.90;;;9.57;;
41927;SDS011;27616;51.420;6.788;2024-03-22T08:27:58;17.17;;;8.90;;
41927;SDS011;27616;51.420;6.788;2024-03-22T08:30:24;27.17;;;14.57;;
41927;SDS011;27616;51.420;6.788;2024-03-22T08:32:50;17.88;;;9.98;;
41927;SDS011;27616;51.420;6.788;2024-03-22T08:35:16;17.23;;;8.82;;
41927;SDS011;27616;51.420;6.788;2024-03-22T08:37:42;18.20;;;8.63;;
41927;SDS011;27616;51.420;6.788;2024-03-22T08:40:08;14.98;;;7.88;;
41927;SDS011;27616;51.420;6.788;2024-03-22T08:42:35;17.30;;;8.27;;
41927;SDS011;27616;51.420;6.788;2024-03-22T08:45:01;16.52;;;8.13;;
41927;SDS011;27616;51.420;6.788;2024-03-22T08:47:29;16.42;;;8.13;;
41927;SDS011;27616;51.420;6.788;2024-03-22T08:49:55;15.18;;;7.82;;
41927;SDS011;27616;51.420;6.788;2024-03-22T08:52:22;14.45;;;8.20;;
41927;SDS011;27616;51.420;6.788;2024-03-22T08:54:50;14.93;;;7.95;;
41927;SDS011;27616;51.420;6.788;2024-03-22T08:57:16;16.80;;;8.20;;
41927;SDS011;27616;51.420;6.788;2024-03-22T08:59:41;15.50;;;7.93;;
41927;SDS011;27616;51.420;6.788;2024-03-22T09:02:07;15.95;;;7.80;;
41927;SDS011;27616;51.420;6.788;2024-03-22T09:04:33;14.77;;;7.70;;
41927;SDS011;27616;51.420;6.788;2024-03-22T09:06:58;17.88;;;9.85;;
41927;SDS011;27616;51.420;6.788;2024-03-22T09:09:24;16.23;;;7.85;;
41927;SDS011;27616;51.420;6.788;2024-03-22T09:11:52;14.23;;;7.30;;
41927;SDS011;27616;51.420;6.788;2024-03-22T09:14:17;14.40;;;7.72;;
41927;SDS011;27616;51.420;6.788;2024-03-22T09:16:43;14.43;;;7.47;;
41927;SDS011;27616;51.420;6.788;2024-03-22T09:19:09;13.73;;;7.32;;
41927;SDS011;27616;51.420;6.788;2024-03-22T09:21:36;13.77;;;7.43;;
41927;SDS011;27616;51.420;6.788;2024-03-22T09:24:01;13.77;;;7.15;;
41927;SDS011;27616;51.420;6.788;2024-03-22T09:26:31;16.42;;;8.15;;
41927;SDS011;27616;51.420;6.788;2024-03-22T09:28:57;13.82;;;7.60;;
41927;SDS011;27616;51.420;6.788;2024-03-22T09:31:23;14.93;;;7.78;;
41927;SDS011;27616;51.420;6.788;2024-03-22T09:33:48;14.68;;;7.70;;
41927;SDS011;27616;51.420;6.788;2024-03-22T09:36:14;13.07;;;7.60;;
41927;SDS011;27616;51.420;6.788;2024-03-22T09:38:39;14.07;;;7.60;;
41927;SDS011;27616;51.420;6.788;2024-03-22T09:41:06;14.77;;;7.28;;
41927;SDS011;27616;51.420;6.788;2024-03-22T09:43:32;13.30;;;7.03;;
41927;SDS011;27616;51.420;6.788;2024-03-22T09:45:59;13.23;;;7.25;;
41927;SDS011;27616;51.420;6.788;2024-03-22T09:48:26;13.90;;;6.53;;
41927;SDS011;27616;51.420;6.788;2024-03-22T09:50:54;14.70;;;7.38;;
41927;SDS011;27616;51.420;6.788;2024-03-22T09:53:20;13.77;;;7.43;;
41927;SDS011;27616;51.420;6.788;2024-03-22T09:55:50;12.30;;;7.30;;
41927;SDS011;27616;51.420;6.788;2024-03-22T09:58:17;15.50;;;7.60;;
41927;SDS011;27616;51.420;6.788;2024-03-22T10:00:43;13.57;;;7.20;;
41927;SDS011;27616;51.420;6.788;2024-03-22T10:03:09;15.70;;;6.90;;
41927;SDS011;27616;51.420;6.788;2024-03-22T10:05:36;11.90;;;7.40;;
41927;SDS011;27616;51.420;6.788;2024-03-22T10:08:04;17.70;;;7.60;;
41927;SDS011;27616;51.420;6.788;2024-03-22T10:10:33;13.27;;;7.07;;
41927;SDS011;27616;51.420;6.788;2024-03-22T10:13:02;13.98;;;7.18;;
41927;SDS011;27616;51.420;6.788;2024-03-22T10:15:32;13.73;;;7.35;;
41927;SDS011;27616;51.420;6.788;2024-03-22T10:17:57;14.27;;;7.57;;
41927;SDS011;27616;51.420;6.788;2024-03-22T10:20:23;15.48;;;6.95;;
41927;SDS011;27616;51.420;6.788;2024-03-22T10:22:53;13.65;;;6.70;;
41927;SDS011;27616;51.420;6.788;2024-03-22T10:25:22;13.45;;;6.85;;
41927;SDS011;27616;51.420;6.788;2024-03-22T10:27:47;14.32;;;7.07;;
41927;SDS011;27616;51.420;6.788;2024-03-22T10:30:15;15.45;;;6.95;;
41927;SDS011;27616;51.420;6.788;2024-03-22T10:32:45;13.52;;;7.53;;
41927;SDS011;27616;51.420;6.788;2024-03-22T10:35:11;13.02;;;7.18;;
41927;SDS011;27616;51.420;6.788;2024-03-22T10:37:40;15.68;;;8.23;;
41927;SDS011;27616;51.420;6.788;2024-03-22T10:40:06;13.80;;;6.88;;
41927;SDS011;27616;51.420;6.788;2024-03-22T10:42:39;14.02;;;7.43;;
41927;SDS011;27616;51.420;6.788;2024-03-22T10:45:06;13.85;;;6.80;;
41927;SDS011;27616;51.420;6.788;2024-03-22T10:47:33;15.75;;;7.40;;
41927;SDS011;27616;51.420;6.788;2024-03-22T10:50:10;11.88;;;6.47;;
41927;SDS011;27616;51.420;6.788;2024-03-22T10:55:13;14.60;;;6.90;;
41927;SDS011;27616;51.420;6.788;2024-03-22T10:57:48;15.40;;;6.15;;
41927;SDS011;27616;51.420;6.788;2024-03-22T11:00:14;13.75;;;6.55;;
41927;SDS011;27616;51.420;6.788;2024-03-22T11:02:44;14.15;;;7.28;;
41927;SDS011;27616;51.420;6.788;2024-03-22T11:05:17;13.48;;;6.60;;
41927;SDS011;27616;51.420;6.788;2024-03-22T11:07:45;12.95;;;6.97;;
41927;SDS011;27616;51.420;6.788;2024-03-22T11:10:11;13.68;;;6.80;;
41927;SDS011;27616;51.420;6.788;2024-03-22T11:12:38;12.57;;;6.50;;
41927;SDS011;27616;51.420;6.788;2024-03-22T11:15:05;13.07;;;6.97;;
41927;SDS011;27616;51.420;6.788;2024-03-22T11:17:30;11.85;;;6.25;;
41927;SDS011;27616;51.420;6.788;2024-03-22T11:19:56;13.27;;;6.15;;
41927;SDS011;27616;51.420;6.788;2024-03-22T11:22:24;12.10;;;6.45;;
41927;SDS011;27616;51.420;6.788;2024-03-22T11:24:52;12.43;;;5.80;;
41927;SDS011;27616;51.420;6.788;2024-03-22T11:27:17;14.13;;;6.35;;
41927;SDS011;27616;51.420;6.788;2024-03-22T11:29:44;11.35;;;6.03;;
41927;SDS011;27616;51.420;6.788;2024-03-22T11:32:13;12.60;;;6.10;;
41927;SDS011;27616;51.420;6.788;2024-03-22T11:34:39;12.02;;;6.25;;
41927;SDS011;27616;51.420;6.788;2024-03-22T11:37:06;12.68;;;6.15;;
41927;SDS011;27616;51.420;6.788;2024-03-22T11:39:35;13.40;;;6.72;;
41927;SDS011;27616;51.420;6.788;2024-03-22T11:42:02;10.52;;;5.70;;
41927;SDS011;27616;51.420;6.788;2024-03-22T11:44:30;11.93;;;6.00;;
41927;SDS011;27616;51.420;6.788;2024-03-22T11:46:57;14.00;;;6.28;;
41927;SDS011;27616;51.420;6.788;2024-03-22T11:49:23;9.75;;;6.35;;
41927;SDS011;27616;51.420;6.788;2024-03-22T11:51:51;15.40;;;6.35;;
41927;SDS011;27616;51.420;6.788;2024-03-22T11:54:20;12.93;;;6.85;;
41927;SDS011;27616;51.420;6.788;2024-03-22T11:56:46;12.85;;;6.90;;
41927;SDS011;27616;51.420;6.788;2024-03-22T11:59:12;16.00;;;7.40;;
41927;SDS011;27616;51.420;6.788;2024-03-22T12:01:38;15.18;;;7.43;;
41927;SDS011;27616;51.420;6.788;2024-03-22T12:04:05;13.32;;;7.65;;
41927;SDS011;27616;51.420;6.788;2024-03-22T12:06:33;14.20;;;8.40;;
41927;SDS011;27616;51.420;6.788;2024-03-22T12:09:00;14.80;;;7.88;;
41927;SDS011;27616;51.420;6.788;2024-03-22T12:11:25;14.75;;;7.40;;
41927;SDS011;27616;51.420;6.788;2024-03-22T12:13:51;13.45;;;7.75;;
41927;SDS011;27616;51.420;6.788;2024-03-22T12:16:17;14.40;;;7.53;;
41927;SDS011;27616;51.420;6.788;2024-03-22T12:18:43;14.63;;;7.28;;
41927;SDS011;27616;51.420;6.788;2024-03-22T12:21:08;15.18;;;8.13;;
41927;SDS011;27616;51.420;6.788;2024-03-22T12:23:34;16.45;;;8.35;;
41927;SDS011;27616;51.420;6.788;2024-03-22T12:26:00;16.33;;;8.25;;
41927;SDS011;27616;51.420;6.788;2024-03-22T12:28:26;16.35;;;8.82;;
41927;SDS011;27616;51.420;6.788;2024-03-22T12:30:55;16.92;;;9.25;;
41927;SDS011;27616;51.420;6.788;2024-03-22T12:33:20;17.05;;;9.18;;
41927;SDS011;27616;51.420;6.788;2024-03-22T12:35:46;17.13;;;10.10;;
41927;SDS011;27616;51.420;6.788;2024-03-22T12:38:13;16.13;;;9.23;;
41927;SDS011;27616;51.420;6.788;2024-03-22T12:40:39;16.85;;;9.95;;
41927;SDS011;27616;51.420;6.788;2024-03-22T12:43:05;17.98;;;9.82;;
41927;SDS011;27616;51.420;6.788;2024-03-22T12:45:31;17.67;;;10.57;;
41927;SDS011;27616;51.420;6.788;2024-03-22T12:48:00;19.92;;;10.75;;
41927;SDS011;27616;51.420;6.788;2024-03-22T12:50:26;16.42;;;9.68;;
41927;SDS011;27616;51.420;6.788;2024-03-22T12:52:52;19.98;;;10.82;;
41927;SDS011;27616;51.420;6.788;2024-03-22T12:55:17;16.85;;;9.93;;
41927;SDS011;27616;51.420;6.788;2024-03-22T12:57:43;19.80;;;10.27;;
41927;SDS011;27616;51.420;6.788;2024-03-22T13:00:09;17.50;;;9.40;;
41927;SDS011;27616;51.420;6.788;2024-03-22T13:02:41;15.52;;;9.32;;
41927;SDS011;27616;51.420;6.788;2024-03-22T13:05:07;16.40;;;9.43;;
41927;SDS011;27616;51.420;6.788;2024-03-22T13:07:33;23.13;;;10.20;;
41927;SDS011;27616;51.420;6.788;2024-03-22T13:09:59;18.67;;;9.30;;
41927;SDS011;27616;51.420;6.788;2024-03-22T13:12:28;16.08;;;9.52;;
41927;SDS011;27616;51.420;6.788;2024-03-22T13:14:56;18.98;;;9.82;;
41927;SDS011;27616;51.420;6.788;2024-03-22T13:17:22;16.20;;;9.10;;
41927;SDS011;27616;51.420;6.788;2024-03-22T13:19:48;18.45;;;9.02;;
41927;SDS011;27616;51.420;6.788;2024-03-22T13:22:14;17.73;;;9.48;;
41927;SDS011;27616;51.420;6.788;2024-03-22T13:24:43;15.73;;;9.05;;
41927;SDS011;27616;51.420;6.788;2024-03-22T13:27:12;16.50;;;9.90;;
41927;SDS011;27616;51.420;6.788;2024-03-22T13:29:39;18.00;;;10.27;;
41927;SDS011;27616;51.420;6.788;2024-03-22T13:32:05;15.70;;;9.35;;
41927;SDS011;27616;51.420;6.788;2024-03-22T13:34:33;16.05;;;8.70;;
41927;SDS011;27616;51.420;6.788;2024-03-22T13:36:59;17.02;;;9.48;;
41927;SDS011;27616;51.420;6.788;2024-03-22T13:39:25;13.70;;;8.98;;
41927;SDS011;27616;51.420;6.788;2024-03-22T13:41:50;14.18;;;8.63;;
41927;SDS011;27616;51.420;6.788;2024-03-22T13:44:16;16.70;;;9.18;;
41927;SDS011;27616;51.420;6.788;2024-03-22T13:46:42;14.98;;;9.32;;
41927;SDS011;27616;51.420;6.788;2024-03-22T13:49:14;15.77;;;9.27;;
41927;SDS011;27616;51.420;6.788;2024-03-22T13:51:43;17.88;;;10.13;;
41927;SDS011;27616;51.420;6.788;2024-03-22T13:54:09;15.10;;;9.25;;
41927;SDS011;27616;51.420;6.788;2024-03-22T13:56:36;14.73;;;9.23;;
41927;SDS011;27616;51.420;6.788;2024-03-22T13:59:03;15.38;;;9.57;;
41927;SDS011;27616;51.420;6.788;2024-03-22T14:01:30;15.05;;;9.63;;
41927;SDS011;27616;51.420;6.788;2024-03-22T14:06:25;14.93;;;8.57;;
41927;SDS011;27616;51.420;6.788;2024-03-22T14:08:51;14.77;;;9.43;;
41927;SDS011;27616;51.420;6.788;2024-03-22T14:11:19;14.75;;;9.23;;
41927;SDS011;27616;51.420;6.788;2024-03-22T14:13:45;16.05;;;9.70;;
41927;SDS011;27616;51.420;6.788;2024-03-22T14:16:10;16.38;;;10.25;;
41927;SDS011;27616;51.420;6.788;2024-03-22T14:18:36;14.45;;;9.27;;
41927;SDS011;27616;51.420;6.788;2024-03-22T14:21:02;18.05;;;11.25;;
41927;SDS011;27616;51.420;6.788;2024-03-22T14:23:28;15.95;;;10.00;;
41927;SDS011;27616;51.420;6.788;2024-03-22T14:25:56;18.43;;;10.47;;